sensor_id;sensor_type;location;lat;lon;timestamp;P1;durP1;ratioP1;P2;durP2;ratioP2
16478;SDS011;8350;52.316;10.530;2023-03-26T00:01:32;3.67;;;2.63;;
16478;SDS011;8350;52.316;10.530;2023-03-26T00:04:00;4.70;;;2.83;;
16478;SDS011;8350;52.316;10.530;2023-03-26T00:06:29;4.22;;;2.92;;
16478;SDS011;8350;52.316;10.530;2023-03-26T00:08:59;3.65;;;2.65;;
16478;SDS011;8350;52.316;10.530;2023-03-26T00:11:26;5.50;;;2.75;;
16478;SDS011;8350;52.316;10.530;2023-03-26T00:13:54;5.57;;;2.45;;
16478;SDS011;8350;52.316;10.530;2023-03-26T00:16:22;4.90;;;2.80;;
16478;SDS011;8350;52.316;10.530;2023-03-26T00:18:51;4.07;;;2.72;;
16478;SDS011;8350;52.316;10.530;2023-03-26T00:21:18;3.20;;;2.90;;
16478;SDS011;8350;52.316;10.530;2023-03-26T00:23:48;4.90;;;3.10;;
16478;SDS011;8350;52.316;10.530;2023-03-26T00:29:27;3.90;;;3.30;;
16478;SDS011;8350;52.316;10.530;2023-03-26T00:31:57;4.82;;;2.72;;
16478;SDS011;8350;52.316;10.530;2023-03-26T00:34:24;4.75;;;3.00;;
16478;SDS011;8350;52.316;10.530;2023-03-26T00:36:51;5.65;;;2.95;;
16478;SDS011;8350;52.316;10.530;2023-03-26T00:39:18;5.25;;;2.85;;
16478;SDS011;8350;52.316;10.530;2023-03-26T00:41:45;3.58;;;2.55;;
16478;SDS011;8350;52.316;10.530;2023-03-26T00:44:14;3.80;;;3.10;;
16478;SDS011;8350;52.316;10.530;2023-03-26T00:46:41;4.70;;;3.40;;
16478;SDS011;8350;52.316;10.530;2023-03-26T00:49:19;4.50;;;2.90;;
16478;SDS011;8350;52.316;10.530;2023-03-26T00:51:46;5.22;;;3.42;;
16478;SDS011;8350;52.316;10.530;2023-03-26T00:54:13;4.90;;;3.72;;
16478;SDS011;8350;52.316;10.530;2023-03-26T00:56:40;6.25;;;4.25;;
16478;SDS011;8350;52.316;10.530;2023-03-26T00:59:07;4.35;;;3.50;;
16478;SDS011;8350;52.316;10.530;2023-03-26T01:01:36;7.03;;;3.60;;
16478;SDS011;8350;52.316;10.530;2023-03-26T01:04:20;4.13;;;3.72;;
16478;SDS011;8350;52.316;10.530;2023-03-26T01:07:16;5.47;;;3.97;;
16478;SDS011;8350;52.316;10.530;2023-03-26T01:09:45;6.63;;;4.22;;
16478;SDS011;8350;52.316;10.530;2023-03-26T01:12:16;10.65;;;4.70;;
16478;SDS011;8350;52.316;10.530;2023-03-26T01:14:46;8.00;;;5.13;;
16478;SDS011;8350;52.316;10.530;2023-03-26T01:17:16;5.38;;;4.70;;
16478;SDS011;8350;52.316;10.530;2023-03-26T01:19:46;6.93;;;4.38;;
16478;SDS011;8350;52.316;10.530;2023-03-26T01:22:18;5.07;;;4.50;;
16478;SDS011;8350;52.316;10.530;2023-03-26T01:25:07;6.70;;;4.10;;
16478;SDS011;8350;52.316;10.530;2023-03-26T01:27:41;4.78;;;4.30;;
16478;SDS011;8350;52.316;10.530;2023-03-26T01:30:13;7.25;;;4.10;;
16478;SDS011;8350;52.316;10.530;2023-03-26T01:32:51;6.22;;;3.55;;
16478;SDS011;8350;52.316;10.530;2023-03-26T01:35:31;5.05;;;3.88;;
16478;SDS011;8350;52.316;10.530;2023-03-26T01:38:06;4.78;;;3.53;;
16478;SDS011;8350;52.316;10.530;2023-03-26T01:40:44;6.78;;;4.18;;
16478;SDS011;8350;52.316;10.530;2023-03-26T01:43:20;6.20;;;3.80;;
16478;SDS011;8350;52.316;10.530;2023-03-26T01:45:55;5.32;;;4.20;;
16478;SDS011;8350;52.316;10.530;2023-03-26T01:48:28;4.13;;;3.33;;
16478;SDS011;8350;52.316;10.530;2023-03-26T01:50:56;4.43;;;3.30;;
16478;SDS011;8350;52.316;10.530;2023-03-26T01:53:23;6.22;;;3.30;;
16478;SDS011;8350;52.316;10.530;2023-03-26T01:55:58;5.00;;;3.00;;
16478;SDS011;8350;52.316;10.530;2023-03-26T01:58:38;5.75;;;2.92;;
16478;SDS011;8350;52.316;10.530;2023-03-26T02:01:14;4.90;;;2.67;;
16478;SDS011;8350;52.316;10.530;2023-03-26T02:03:55;5.78;;;3.03;;
16478;SDS011;8350;52.316;10.530;2023-03-26T02:06:31;5.22;;;2.90;;
16478;SDS011;8350;52.316;10.530;2023-03-26T02:09:04;6.20;;;2.83;;
16478;SDS011;8350;52.316;10.530;2023-03-26T02:11:35;6.25;;;2.83;;
16478;SDS011;8350;52.316;10.530;2023-03-26T02:14:03;6.95;;;3.28;;
16478;SDS011;8350;52.316;10.530;2023-03-26T02:16:32;7.30;;;2.80;;
16478;SDS011;8350;52.316;10.530;2023-03-26T02:18:59;5.40;;;2.53;;
16478;SDS011;8350;52.316;10.530;2023-03-26T02:21:27;4.38;;;2.60;;
16478;SDS011;8350;52.316;10.530;2023-03-26T02:23:58;5.75;;;2.85;;
16478;SDS011;8350;52.316;10.530;2023-03-26T02:26:28;3.90;;;2.40;;
16478;SDS011;8350;52.316;10.530;2023-03-26T02:28:57;6.75;;;2.50;;
16478;SDS011;8350;52.316;10.530;2023-03-26T02:31:27;4.40;;;2.40;;
16478;SDS011;8350;52.316;10.530;2023-03-26T02:33:56;5.20;;;2.63;;
16478;SDS011;8350;52.316;10.530;2023-03-26T02:36:24;4.30;;;2.20;;
16478;SDS011;8350;52.316;10.530;2023-03-26T02:38:52;4.35;;;2.53;;
16478;SDS011;8350;52.316;10.530;2023-03-26T02:41:22;6.40;;;2.40;;
16478;SDS011;8350;52.316;10.530;2023-03-26T02:43:53;5.68;;;2.13;;
16478;SDS011;8350;52.316;10.530;2023-03-26T02:46:21;6.03;;;2.58;;
16478;SDS011;8350;52.316;10.530;2023-03-26T02:48:51;5.07;;;1.88;;
16478;SDS011;8350;52.316;10.530;2023-03-26T02:51:30;4.88;;;1.75;;
16478;SDS011;8350;52.316;10.530;2023-03-26T02:53:58;4.53;;;1.95;;
16478;SDS011;8350;52.316;10.530;2023-03-26T02:56:25;3.70;;;1.67;;
16478;SDS011;8350;52.316;10.530;2023-03-26T02:58:52;3.70;;;2.15;;
16478;SDS011;8350;52.316;10.530;2023-03-26T03:01:19;5.68;;;1.70;;
16478;SDS011;8350;52.316;10.530;2023-03-26T03:03:48;3.63;;;1.90;;
16478;SDS011;8350;52.316;10.530;2023-03-26T03:06:15;6.43;;;2.10;;
16478;SDS011;8350;52.316;10.530;2023-03-26T03:08:43;9.85;;;3.00;;
16478;SDS011;8350;52.316;10.530;2023-03-26T03:11:11;6.15;;;1.90;;
16478;SDS011;8350;52.316;10.530;2023-03-26T03:13:39;2.08;;;1.88;;
16478;SDS011;8350;52.316;10.530;2023-03-26T03:16:07;4.35;;;2.03;;
16478;SDS011;8350;52.316;10.530;2023-03-26T03:18:35;4.65;;;2.00;;
16478;SDS011;8350;52.316;10.530;2023-03-26T03:21:05;3.65;;;2.47;;
16478;SDS011;8350;52.316;10.530;2023-03-26T03:23:32;7.05;;;2.70;;
16478;SDS011;8350;52.316;10.530;2023-03-26T03:26:01;5.72;;;2.63;;
16478;SDS011;8350;52.316;10.530;2023-03-26T03:28:28;4.45;;;1.63;;
16478;SDS011;8350;52.316;10.530;2023-03-26T03:30:57;3.72;;;1.92;;
16478;SDS011;8350;52.316;10.530;2023-03-26T03:33:24;2.33;;;1.77;;
16478;SDS011;8350;52.316;10.530;2023-03-26T03:35:53;4.68;;;1.90;;
16478;SDS011;8350;52.316;10.530;2023-03-26T03:38:22;4.20;;;1.35;;
16478;SDS011;8350;52.316;10.530;2023-03-26T03:40:51;3.88;;;1.50;;
16478;SDS011;8350;52.316;10.530;2023-03-26T03:43:19;3.88;;;1.50;;
16478;SDS011;8350;52.316;10.530;2023-03-26T03:45:46;4.25;;;1.73;;
16478;SDS011;8350;52.316;10.530;2023-03-26T03:48:13;3.45;;;1.40;;
16478;SDS011;8350;52.316;10.530;2023-03-26T03:50:44;3.85;;;1.50;;
16478;SDS011;8350;52.316;10.530;2023-03-26T03:53:13;4.10;;;1.48;;
16478;SDS011;8350;52.316;10.530;2023-03-26T03:55:40;2.47;;;1.60;;
16478;SDS011;8350;52.316;10.530;2023-03-26T03:58:07;2.90;;;1.70;;
16478;SDS011;8350;52.316;10.530;2023-03-26T04:00:38;4.78;;;1.83;;
16478;SDS011;8350;52.316;10.530;2023-03-26T04:03:05;2.80;;;1.35;;
16478;SDS011;8350;52.316;10.530;2023-03-26T04:05:38;5.00;;;1.35;;
16478;SDS011;8350;52.316;10.530;2023-03-26T04:08:20;2.97;;;1.42;;
16478;SDS011;8350;52.316;10.530;2023-03-26T04:10:47;4.70;;;2.00;;
16478;SDS011;8350;52.316;10.530;2023-03-26T04:13:16;2.55;;;1.15;;
16478;SDS011;8350;52.316;10.530;2023-03-26T04:15:43;2.35;;;1.40;;
16478;SDS011;8350;52.316;10.530;2023-03-26T04:18:10;4.15;;;2.00;;
16478;SDS011;8350;52.316;10.530;2023-03-26T04:20:37;3.03;;;1.48;;
16478;SDS011;8350;52.316;10.530;2023-03-26T04:23:06;2.22;;;1.10;;
16478;SDS011;8350;52.316;10.530;2023-03-26T04:25:39;2.92;;;1.25;;
16478;SDS011;8350;52.316;10.530;2023-03-26T04:28:08;6.70;;;1.45;;
16478;SDS011;8350;52.316;10.530;2023-03-26T04:30:43;5.15;;;1.13;;
16478;SDS011;8350;52.316;10.530;2023-03-26T04:33:10;2.95;;;1.52;;
16478;SDS011;8350;52.316;10.530;2023-03-26T04:35:45;4.65;;;1.60;;
16478;SDS011;8350;52.316;10.530;2023-03-26T04:38:16;4.82;;;1.25;;
16478;SDS011;8350;52.316;10.530;2023-03-26T04:40:45;3.47;;;1.60;;
16478;SDS011;8350;52.316;10.530;2023-03-26T04:43:18;3.47;;;1.30;;
16478;SDS011;8350;52.316;10.530;2023-03-26T04:45:45;2.63;;;1.20;;
16478;SDS011;8350;52.316;10.530;2023-03-26T04:48:12;2.38;;;1.27;;
16478;SDS011;8350;52.316;10.530;2023-03-26T04:50:40;3.22;;;1.10;;
16478;SDS011;8350;52.316;10.530;2023-03-26T04:53:08;3.00;;;1.20;;
16478;SDS011;8350;52.316;10.530;2023-03-26T04:55:41;2.85;;;1.40;;
16478;SDS011;8350;52.316;10.530;2023-03-26T04:58:16;6.38;;;1.70;;
16478;SDS011;8350;52.316;10.530;2023-03-26T05:00:43;3.13;;;1.35;;
16478;SDS011;8350;52.316;10.530;2023-03-26T05:03:13;4.65;;;1.60;;
16478;SDS011;8350;52.316;10.530;2023-03-26T05:05:40;2.42;;;1.90;;
16478;SDS011;8350;52.316;10.530;2023-03-26T05:08:07;3.13;;;1.98;;
16478;SDS011;8350;52.316;10.530;2023-03-26T05:10:36;2.85;;;1.50;;
16478;SDS011;8350;52.316;10.530;2023-03-26T05:13:05;3.90;;;1.80;;
16478;SDS011;8350;52.316;10.530;2023-03-26T05:15:33;3.10;;;1.70;;
16478;SDS011;8350;52.316;10.530;2023-03-26T05:18:00;2.97;;;1.73;;
16478;SDS011;8350;52.316;10.530;2023-03-26T05:20:44;5.72;;;1.73;;
16478;SDS011;8350;52.316;10.530;2023-03-26T05:23:44;2.55;;;1.52;;
16478;SDS011;8350;52.316;10.530;2023-03-26T05:26:11;6.68;;;1.83;;
16478;SDS011;8350;52.316;10.530;2023-03-26T05:28:39;4.97;;;1.80;;
16478;SDS011;8350;52.316;10.530;2023-03-26T05:31:13;4.25;;;1.77;;
16478;SDS011;8350;52.316;10.530;2023-03-26T05:33:40;5.32;;;1.95;;
16478;SDS011;8350;52.316;10.530;2023-03-26T05:36:09;3.70;;;1.80;;
16478;SDS011;8350;52.316;10.530;2023-03-26T05:38:39;6.75;;;1.63;;
16478;SDS011;8350;52.316;10.530;2023-03-26T05:41:07;4.63;;;1.73;;
16478;SDS011;8350;52.316;10.530;2023-03-26T05:43:35;3.10;;;1.60;;
16478;SDS011;8350;52.316;10.530;2023-03-26T05:46:04;3.72;;;1.85;;
16478;SDS011;8350;52.316;10.530;2023-03-26T05:48:31;3.13;;;1.40;;
16478;SDS011;8350;52.316;10.530;2023-03-26T05:50:58;2.60;;;1.55;;
16478;SDS011;8350;52.316;10.530;2023-03-26T05:53:25;3.83;;;1.83;;
16478;SDS011;8350;52.316;10.530;2023-03-26T05:55:53;3.03;;;1.38;;
16478;SDS011;8350;52.316;10.530;2023-03-26T05:58:22;3.45;;;1.63;;
16478;SDS011;8350;52.316;10.530;2023-03-26T06:00:56;3.33;;;1.33;;
16478;SDS011;8350;52.316;10.530;2023-03-26T06:03:25;3.85;;;1.50;;
16478;SDS011;8350;52.316;10.530;2023-03-26T06:05:52;4.32;;;1.30;;
16478;SDS011;8350;52.316;10.530;2023-03-26T06:08:19;3.30;;;1.30;;
16478;SDS011;8350;52.316;10.530;2023-03-26T06:10:46;4.90;;;1.50;;
16478;SDS011;8350;52.316;10.530;2023-03-26T06:13:13;4.50;;;2.13;;
16478;SDS011;8350;52.316;10.530;2023-03-26T06:15:41;4.00;;;1.40;;
16478;SDS011;8350;52.316;10.530;2023-03-26T06:18:08;4.15;;;1.67;;
16478;SDS011;8350;52.316;10.530;2023-03-26T06:20:36;4.60;;;2.13;;
16478;SDS011;8350;52.316;10.530;2023-03-26T06:23:05;3.67;;;2.10;;
16478;SDS011;8350;52.316;10.530;2023-03-26T06:28:02;4.07;;;1.70;;
16478;SDS011;8350;52.316;10.530;2023-03-26T06:30:42;3.72;;;2.20;;
16478;SDS011;8350;52.316;10.530;2023-03-26T06:33:09;5.72;;;2.15;;
16478;SDS011;8350;52.316;10.530;2023-03-26T06:35:39;5.68;;;2.20;;
16478;SDS011;8350;52.316;10.530;2023-03-26T06:38:07;3.20;;;1.92;;
16478;SDS011;8350;52.316;10.530;2023-03-26T06:40:38;4.70;;;2.25;;
16478;SDS011;8350;52.316;10.530;2023-03-26T06:43:04;3.80;;;2.38;;
16478;SDS011;8350;52.316;10.530;2023-03-26T06:45:31;7.03;;;2.38;;
16478;SDS011;8350;52.316;10.530;2023-03-26T06:48:01;4.40;;;2.05;;
16478;SDS011;8350;52.316;10.530;2023-03-26T06:50:28;5.57;;;2.42;;
16478;SDS011;8350;52.316;10.530;2023-03-26T06:52:58;6.15;;;2.50;;
16478;SDS011;8350;52.316;10.530;2023-03-26T06:55:25;6.07;;;3.20;;
16478;SDS011;8350;52.316;10.530;2023-03-26T06:57:53;4.70;;;2.75;;
16478;SDS011;8350;52.316;10.530;2023-03-26T07:00:22;5.47;;;2.60;;
16478;SDS011;8350;52.316;10.530;2023-03-26T07:02:49;3.38;;;2.40;;
16478;SDS011;8350;52.316;10.530;2023-03-26T07:05:17;4.80;;;2.25;;
16478;SDS011;8350;52.316;10.530;2023-03-26T07:07:44;6.53;;;2.47;;
16478;SDS011;8350;52.316;10.530;2023-03-26T07:10:13;3.95;;;2.40;;
16478;SDS011;8350;52.316;10.530;2023-03-26T07:12:40;5.55;;;2.78;;
16478;SDS011;8350;52.316;10.530;2023-03-26T07:15:13;5.90;;;2.60;;
16478;SDS011;8350;52.316;10.530;2023-03-26T07:17:49;4.55;;;2.55;;
16478;SDS011;8350;52.316;10.530;2023-03-26T07:20:16;3.63;;;2.20;;
16478;SDS011;8350;52.316;10.530;2023-03-26T07:22:43;8.82;;;2.50;;
16478;SDS011;8350;52.316;10.530;2023-03-26T07:25:11;6.25;;;3.42;;
16478;SDS011;8350;52.316;10.530;2023-03-26T07:27:43;4.70;;;2.70;;
16478;SDS011;8350;52.316;10.530;2023-03-26T07:30:18;5.82;;;3.22;;
16478;SDS011;8350;52.316;10.530;2023-03-26T07:32:51;4.93;;;2.70;;
16478;SDS011;8350;52.316;10.530;2023-03-26T07:35:22;5.20;;;2.63;;
16478;SDS011;8350;52.316;10.530;2023-03-26T07:37:57;5.90;;;3.38;;
16478;SDS011;8350;52.316;10.530;2023-03-26T07:40:47;4.78;;;3.03;;
16478;SDS011;8350;52.316;10.530;2023-03-26T07:43:29;10.52;;;3.90;;
16478;SDS011;8350;52.316;10.530;2023-03-26T07:46:06;6.93;;;4.07;;
16478;SDS011;8350;52.316;10.530;2023-03-26T07:48:38;5.13;;;3.70;;
16478;SDS011;8350;52.316;10.530;2023-03-26T07:51:07;5.97;;;3.33;;
16478;SDS011;8350;52.316;10.530;2023-03-26T07:53:35;4.32;;;3.00;;
16478;SDS011;8350;52.316;10.530;2023-03-26T07:56:09;4.32;;;3.08;;
16478;SDS011;8350;52.316;10.530;2023-03-26T07:58:45;3.70;;;3.05;;
16478;SDS011;8350;52.316;10.530;2023-03-26T08:01:23;11.68;;;2.95;;
16478;SDS011;8350;52.316;10.530;2023-03-26T08:06:49;6.82;;;3.47;;
16478;SDS011;8350;52.316;10.530;2023-03-26T08:09:22;8.02;;;3.25;;
16478;SDS011;8350;52.316;10.530;2023-03-26T08:11:59;5.88;;;3.63;;
16478;SDS011;8350;52.316;10.530;2023-03-26T08:14:32;8.65;;;3.55;;
16478;SDS011;8350;52.316;10.530;2023-03-26T08:17:13;7.93;;;3.17;;
16478;SDS011;8350;52.316;10.530;2023-03-26T08:19:50;4.93;;;3.58;;
16478;SDS011;8350;52.316;10.530;2023-03-26T08:22:37;10.43;;;4.00;;
16478;SDS011;8350;52.316;10.530;2023-03-26T08:25:16;5.68;;;3.35;;
16478;SDS011;8350;52.316;10.530;2023-03-26T08:27:53;4.75;;;2.85;;
16478;SDS011;8350;52.316;10.530;2023-03-26T08:30:32;6.20;;;3.25;;
16478;SDS011;8350;52.316;10.530;2023-03-26T08:33:01;4.65;;;2.70;;
16478;SDS011;8350;52.316;10.530;2023-03-26T08:35:36;4.25;;;2.45;;
16478;SDS011;8350;52.316;10.530;2023-03-26T08:38:06;7.07;;;2.72;;
16478;SDS011;8350;52.316;10.530;2023-03-26T08:40:56;5.05;;;2.95;;
16478;SDS011;8350;52.316;10.530;2023-03-26T08:46:58;4.97;;;3.35;;
16478;SDS011;8350;52.316;10.530;2023-03-26T08:50:02;6.57;;;3.22;;
16478;SDS011;8350;52.316;10.530;2023-03-26T08:55:53;6.80;;;3.20;;
16478;SDS011;8350;52.316;10.530;2023-03-26T09:05:16;5.82;;;3.00;;
16478;SDS011;8350;52.316;10.530;2023-03-26T09:11:20;5.78;;;3.03;;
16478;SDS011;8350;52.316;10.530;2023-03-26T09:14:15;7.93;;;3.53;;
16478;SDS011;8350;52.316;10.530;2023-03-26T09:17:28;6.32;;;2.80;;
16478;SDS011;8350;52.316;10.530;2023-03-26T09:23:26;7.53;;;3.90;;
16478;SDS011;8350;52.316;10.530;2023-03-26T09:26:26;7.90;;;3.90;;
16478;SDS011;8350;52.316;10.530;2023-03-26T09:29:20;6.35;;;3.53;;
16478;SDS011;8350;52.316;10.530;2023-03-26T09:32:21;8.63;;;4.72;;
16478;SDS011;8350;52.316;10.530;2023-03-26T09:35:13;5.25;;;4.18;;
16478;SDS011;8350;52.316;10.530;2023-03-26T09:37:56;5.07;;;4.38;;
16478;SDS011;8350;52.316;10.530;2023-03-26T09:43:01;4.40;;;3.22;;
16478;SDS011;8350;52.316;10.530;2023-03-26T09:45:51;6.35;;;3.25;;
16478;SDS011;8350;52.316;10.530;2023-03-26T09:48:32;5.05;;;2.92;;
16478;SDS011;8350;52.316;10.530;2023-03-26T09:51:33;5.95;;;2.80;;
16478;SDS011;8350;52.316;10.530;2023-03-26T09:57:38;7.38;;;2.35;;
16478;SDS011;8350;52.316;10.530;2023-03-26T10:00:24;3.83;;;1.85;;
16478;SDS011;8350;52.316;10.530;2023-03-26T10:03:07;5.57;;;1.50;;
16478;SDS011;8350;52.316;10.530;2023-03-26T10:05:56;2.75;;;1.30;;
16478;SDS011;8350;52.316;10.530;2023-03-26T10:11:34;3.38;;;1.48;;
16478;SDS011;8350;52.316;10.530;2023-03-26T10:14:16;4.93;;;1.88;;
16478;SDS011;8350;52.316;10.530;2023-03-26T10:16:51;4.63;;;1.95;;
16478;SDS011;8350;52.316;10.530;2023-03-26T10:19:39;6.60;;;1.65;;
16478;SDS011;8350;52.316;10.530;2023-03-26T10:22:28;5.80;;;1.70;;
16478;SDS011;8350;52.316;10.530;2023-03-26T10:25:11;3.97;;;1.85;;
16478;SDS011;8350;52.316;10.530;2023-03-26T10:27:48;3.67;;;1.60;;
16478;SDS011;8350;52.316;10.530;2023-03-26T10:30:29;4.40;;;1.77;;
16478;SDS011;8350;52.316;10.530;2023-03-26T10:33:10;5.95;;;1.92;;
16478;SDS011;8350;52.316;10.530;2023-03-26T10:35:47;7.05;;;2.25;;
16478;SDS011;8350;52.316;10.530;2023-03-26T10:38:28;3.75;;;1.80;;
16478;SDS011;8350;52.316;10.530;2023-03-26T10:41:07;4.90;;;2.00;;
16478;SDS011;8350;52.316;10.530;2023-03-26T10:43:50;3.97;;;2.28;;
16478;SDS011;8350;52.316;10.530;2023-03-26T10:49:27;4.35;;;1.85;;
16478;SDS011;8350;52.316;10.530;2023-03-26T10:52:14;6.57;;;2.50;;
16478;SDS011;8350;52.316;10.530;2023-03-26T10:54:54;5.03;;;2.60;;
16478;SDS011;8350;52.316;10.530;2023-03-26T10:57:27;4.95;;;2.20;;
16478;SDS011;8350;52.316;10.530;2023-03-26T11:00:12;7.32;;;2.20;;
16478;SDS011;8350;52.316;10.530;2023-03-26T11:02:45;6.20;;;2.63;;
16478;SDS011;8350;52.316;10.530;2023-03-26T11:05:39;5.35;;;2.40;;
16478;SDS011;8350;52.316;10.530;2023-03-26T11:08:13;3.25;;;2.15;;
16478;SDS011;8350;52.316;10.530;2023-03-26T11:10:47;4.75;;;2.42;;
16478;SDS011;8350;52.316;10.530;2023-03-26T11:13:22;4.97;;;2.63;;
16478;SDS011;8350;52.316;10.530;2023-03-26T11:15:59;2.85;;;2.30;;
16478;SDS011;8350;52.316;10.530;2023-03-26T11:18:32;5.60;;;4.32;;
16478;SDS011;8350;52.316;10.530;2023-03-26T11:22:36;5.43;;;4.45;;
16478;SDS011;8350;52.316;10.530;2023-03-26T11:24:52;5.03;;;3.58;;
16478;SDS011;8350;52.316;10.530;2023-03-26T11:33:13;5.40;;;2.88;;
16478;SDS011;8350;52.316;10.530;2023-03-26T11:35:46;5.10;;;2.03;;
16478;SDS011;8350;52.316;10.530;2023-03-26T11:38:17;4.07;;;1.60;;
16478;SDS011;8350;52.316;10.530;2023-03-26T11:40:49;3.05;;;1.80;;
16478;SDS011;8350;52.316;10.530;2023-03-26T11:43:19;5.88;;;2.83;;
16478;SDS011;8350;52.316;10.530;2023-03-26T11:45:49;4.43;;;2.28;;
16478;SDS011;8350;52.316;10.530;2023-03-26T11:48:18;6.07;;;2.47;;
16478;SDS011;8350;52.316;10.530;2023-03-26T11:50:52;5.13;;;2.05;;
16478;SDS011;8350;52.316;10.530;2023-03-26T11:53:24;2.85;;;2.05;;
16478;SDS011;8350;52.316;10.530;2023-03-26T11:55:56;6.03;;;2.10;;
16478;SDS011;8350;52.316;10.530;2023-03-26T11:58:28;4.28;;;2.15;;
16478;SDS011;8350;52.316;10.530;2023-03-26T12:01:01;4.50;;;2.45;;
16478;SDS011;8350;52.316;10.530;2023-03-26T12:03:30;5.40;;;2.60;;
16478;SDS011;8350;52.316;10.530;2023-03-26T12:05:59;5.35;;;2.67;;
16478;SDS011;8350;52.316;10.530;2023-03-26T12:08:29;3.95;;;2.10;;
16478;SDS011;8350;52.316;10.530;2023-03-26T12:11:02;7.50;;;2.72;;
16478;SDS011;8350;52.316;10.530;2023-03-26T12:13:36;4.78;;;2.20;;
16478;SDS011;8350;52.316;10.530;2023-03-26T12:16:08;4.70;;;2.33;;
16478;SDS011;8350;52.316;10.530;2023-03-26T12:18:38;5.32;;;2.35;;
16478;SDS011;8350;52.316;10.530;2023-03-26T12:21:09;5.53;;;2.17;;
16478;SDS011;8350;52.316;10.530;2023-03-26T12:23:50;5.85;;;2.20;;
16478;SDS011;8350;52.316;10.530;2023-03-26T12:26:27;5.32;;;2.03;;
16478;SDS011;8350;52.316;10.530;2023-03-26T12:28:58;7.03;;;2.20;;
16478;SDS011;8350;52.316;10.530;2023-03-26T12:31:39;6.25;;;2.53;;
16478;SDS011;8350;52.316;10.530;2023-03-26T12:34:20;5.28;;;2.25;;
16478;SDS011;8350;52.316;10.530;2023-03-26T12:36:51;6.82;;;2.40;;
16478;SDS011;8350;52.316;10.530;2023-03-26T12:39:32;6.43;;;2.30;;
16478;SDS011;8350;52.316;10.530;2023-03-26T12:42:02;4.07;;;2.22;;
16478;SDS011;8350;52.316;10.530;2023-03-26T12:44:33;4.93;;;2.65;;
16478;SDS011;8350;52.316;10.530;2023-03-26T12:47:08;3.47;;;2.20;;
16478;SDS011;8350;52.316;10.530;2023-03-26T12:49:40;4.97;;;2.60;;
16478;SDS011;8350;52.316;10.530;2023-03-26T12:52:23;5.38;;;2.60;;
16478;SDS011;8350;52.316;10.530;2023-03-26T12:55:06;2.95;;;2.45;;
16478;SDS011;8350;52.316;10.530;2023-03-26T12:57:42;5.97;;;2.65;;
16478;SDS011;8350;52.316;10.530;2023-03-26T13:00:24;5.50;;;2.72;;
16478;SDS011;8350;52.316;10.530;2023-03-26T13:03:05;4.28;;;2.60;;
16478;SDS011;8350;52.316;10.530;2023-03-26T13:05:46;3.83;;;2.28;;
16478;SDS011;8350;52.316;10.530;2023-03-26T13:11:31;4.82;;;2.47;;
16478;SDS011;8350;52.316;10.530;2023-03-26T13:14:20;2.95;;;2.60;;
16478;SDS011;8350;52.316;10.530;2023-03-26T13:16:57;4.70;;;2.35;;
16478;SDS011;8350;52.316;10.530;2023-03-26T13:19:31;4.97;;;2.55;;
16478;SDS011;8350;52.316;10.530;2023-03-26T13:22:08;5.32;;;2.60;;
16478;SDS011;8350;52.316;10.530;2023-03-26T13:24:50;4.63;;;2.22;;
16478;SDS011;8350;52.316;10.530;2023-03-26T13:27:27;6.95;;;2.80;;
16478;SDS011;8350;52.316;10.530;2023-03-26T13:30:14;5.93;;;2.58;;
16478;SDS011;8350;52.316;10.530;2023-03-26T13:32:51;6.57;;;2.45;;
16478;SDS011;8350;52.316;10.530;2023-03-26T13:35:27;5.85;;;2.40;;
16478;SDS011;8350;52.316;10.530;2023-03-26T13:38:00;3.60;;;2.22;;
16478;SDS011;8350;52.316;10.530;2023-03-26T13:40:43;4.97;;;2.47;;
16478;SDS011;8350;52.316;10.530;2023-03-26T13:43:22;5.47;;;2.25;;
16478;SDS011;8350;52.316;10.530;2023-03-26T13:45:56;4.63;;;2.08;;
16478;SDS011;8350;52.316;10.530;2023-03-26T13:48:31;4.72;;;2.10;;
16478;SDS011;8350;52.316;10.530;2023-03-26T13:51:16;4.97;;;2.28;;
16478;SDS011;8350;52.316;10.530;2023-03-26T13:53:49;3.22;;;1.88;;
16478;SDS011;8350;52.316;10.530;2023-03-26T13:56:22;7.28;;;2.15;;
16478;SDS011;8350;52.316;10.530;2023-03-26T13:58:53;4.40;;;1.90;;
16478;SDS011;8350;52.316;10.530;2023-03-26T14:01:26;4.95;;;2.38;;
16478;SDS011;8350;52.316;10.530;2023-03-26T14:04:00;7.20;;;2.40;;
16478;SDS011;8350;52.316;10.530;2023-03-26T14:06:36;4.60;;;2.72;;
16478;SDS011;8350;52.316;10.530;2023-03-26T14:09:09;6.18;;;2.88;;
16478;SDS011;8350;52.316;10.530;2023-03-26T14:11:47;3.53;;;2.10;;
16478;SDS011;8350;52.316;10.530;2023-03-26T14:14:24;9.95;;;2.70;;
16478;SDS011;8350;52.316;10.530;2023-03-26T14:17:00;6.32;;;2.40;;
16478;SDS011;8350;52.316;10.530;2023-03-26T14:19:55;4.97;;;2.75;;
16478;SDS011;8350;52.316;10.530;2023-03-26T14:22:59;4.07;;;2.00;;
16478;SDS011;8350;52.316;10.530;2023-03-26T14:25:38;3.65;;;2.42;;
16478;SDS011;8350;52.316;10.530;2023-03-26T14:28:22;5.43;;;2.78;;
16478;SDS011;8350;52.316;10.530;2023-03-26T14:31:17;6.13;;;2.55;;
16478;SDS011;8350;52.316;10.530;2023-03-26T14:34:04;3.83;;;2.40;;
16478;SDS011;8350;52.316;10.530;2023-03-26T14:36:58;7.57;;;2.92;;
16478;SDS011;8350;52.316;10.530;2023-03-26T14:39:52;4.03;;;2.40;;
16478;SDS011;8350;52.316;10.530;2023-03-26T14:42:40;4.43;;;2.00;;
16478;SDS011;8350;52.316;10.530;2023-03-26T14:45:19;7.82;;;3.97;;
16478;SDS011;8350;52.316;10.530;2023-03-26T14:48:06;6.78;;;2.85;;
16478;SDS011;8350;52.316;10.530;2023-03-26T14:51:08;5.05;;;2.83;;
16478;SDS011;8350;52.316;10.530;2023-03-26T14:53:45;4.00;;;2.30;;
16478;SDS011;8350;52.316;10.530;2023-03-26T14:56:24;4.03;;;2.47;;
16478;SDS011;8350;52.316;10.530;2023-03-26T14:59:21;6.22;;;2.65;;
16478;SDS011;8350;52.316;10.530;2023-03-26T15:05:50;6.90;;;2.95;;
16478;SDS011;8350;52.316;10.530;2023-03-26T15:11:46;5.15;;;2.40;;
16478;SDS011;8350;52.316;10.530;2023-03-26T15:20:51;6.25;;;2.45;;
16478;SDS011;8350;52.316;10.530;2023-03-26T15:23:53;6.75;;;2.90;;
16478;SDS011;8350;52.316;10.530;2023-03-26T15:33:18;6.25;;;2.95;;
16478;SDS011;8350;52.316;10.530;2023-03-26T15:42:20;5.50;;;2.65;;
16478;SDS011;8350;52.316;10.530;2023-03-26T15:44:59;4.03;;;2.40;;
16478;SDS011;8350;52.316;10.530;2023-03-26T15:48:04;4.82;;;2.75;;
16478;SDS011;8350;52.316;10.530;2023-03-26T15:50:45;4.20;;;2.92;;
16478;SDS011;8350;52.316;10.530;2023-03-26T15:53:20;5.30;;;2.42;;
16478;SDS011;8350;52.316;10.530;2023-03-26T15:56:02;3.53;;;2.10;;
16478;SDS011;8350;52.316;10.530;2023-03-26T15:58:41;8.43;;;2.72;;
16478;SDS011;8350;52.316;10.530;2023-03-26T16:01:16;8.95;;;2.40;;
16478;SDS011;8350;52.316;10.530;2023-03-26T16:04:04;5.45;;;2.55;;
16478;SDS011;8350;52.316;10.530;2023-03-26T16:06:53;5.07;;;2.92;;
16478;SDS011;8350;52.316;10.530;2023-03-26T16:12:43;5.32;;;2.30;;
16478;SDS011;8350;52.316;10.530;2023-03-26T16:15:14;9.07;;;3.58;;
16478;SDS011;8350;52.316;10.530;2023-03-26T16:24:10;4.43;;;2.22;;
16478;SDS011;8350;52.316;10.530;2023-03-26T16:27:03;5.88;;;2.20;;
16478;SDS011;8350;52.316;10.530;2023-03-26T16:32:40;3.83;;;2.50;;
16478;SDS011;8350;52.316;10.530;2023-03-26T16:38:08;5.72;;;1.90;;
16478;SDS011;8350;52.316;10.530;2023-03-26T16:40:50;3.30;;;2.13;;
16478;SDS011;8350;52.316;10.530;2023-03-26T16:43:37;3.47;;;1.73;;
16478;SDS011;8350;52.316;10.530;2023-03-26T16:46:28;4.30;;;2.00;;
16478;SDS011;8350;52.316;10.530;2023-03-26T16:49:02;3.28;;;1.85;;
16478;SDS011;8350;52.316;10.530;2023-03-26T16:54:33;5.40;;;2.88;;
16478;SDS011;8350;52.316;10.530;2023-03-26T16:57:09;7.88;;;2.58;;
16478;SDS011;8350;52.316;10.530;2023-03-26T16:59:53;4.97;;;1.88;;
16478;SDS011;8350;52.316;10.530;2023-03-26T17:02:32;5.10;;;2.45;;
16478;SDS011;8350;52.316;10.530;2023-03-26T17:05:06;3.90;;;2.13;;
16478;SDS011;8350;52.316;10.530;2023-03-26T17:07:43;6.05;;;2.13;;
16478;SDS011;8350;52.316;10.530;2023-03-26T17:10:19;5.18;;;2.17;;